Time;durP1;ratioP1;P1;durP2;ratioP2;P2;SDS_P1;SDS_P2;PMS_P1;PMS_P2;Temp;Humidity;BMP_temperature;BMP_pressure;BME280_temperature;BME280_humidity;BME280_pressure;Samples;Min_cycle;Max_cycle;Signal;HPM_P1;HPM_P2
2023/03/14 00:03:09;;;;;;;1.30;1.10;;;10.80;99.90;;;;;;7777212;28;20291;-92
2023/03/14 00:06:54;;;;;;;1.27;1.17;;;10.70;99.90;;;;;;7776885;28;20187;-91
2023/03/14 00:10:40;;;;;;;1.57;1.20;;;10.60;99.90;;;;;;7793737;28;20652;-92
2023/03/14 00:14:26;;;;;;;1.90;1.30;;;10.60;99.90;;;;;;7807376;28;20203;-92
2023/03/14 00:18:12;;;;;;;3.77;1.77;;;10.60;99.90;;;;;;7802491;28;20217;-92
2023/03/14 00:21:57;;;;;;;2.73;1.53;;;10.50;99.90;;;;;;7812621;28;20547;-92
2023/03/14 00:25:43;;;;;;;2.43;1.50;;;10.50;99.90;;;;;;7807452;28;20202;-92
2023/03/14 00:29:42;;;;;;;3.90;2.13;;;10.40;99.90;;;;;;7814930;28;20212;-91
2023/03/14 00:33:28;;;;;;;3.63;2.40;;;10.40;99.90;;;;;;7817843;28;20214;-91
2023/03/14 00:37:13;;;;;;;3.93;2.57;;;10.40;99.90;;;;;;7822887;28;20704;-92
2023/03/14 00:41:03;;;;;;;3.23;2.50;;;10.30;99.90;;;;;;7807225;28;20278;-92
2023/03/14 00:44:48;;;;;;;2.50;2.30;;;10.30;99.90;;;;;;7806723;28;20230;-91
2023/03/14 00:48:34;;;;;;;4.63;2.43;;;10.30;99.90;;;;;;7807140;28;20248;-92
2023/03/14 00:52:20;;;;;;;2.77;2.10;;;10.30;99.90;;;;;;7806887;28;20261;-92
2023/03/14 00:56:09;;;;;;;4.20;2.00;;;10.30;99.90;;;;;;7803755;28;20210;-91
2023/03/14 00:59:54;;;;;;;3.57;2.47;;;10.30;99.90;;;;;;7820231;28;20354;-91
2023/03/14 01:03:40;;;;;;;2.67;2.30;;;10.30;99.90;;;;;;7806835;28;20198;-92
2023/03/14 01:07:26;;;;;;;2.83;2.30;;;10.30;99.90;;;;;;7799992;28;20649;-91
2023/03/14 01:11:17;;;;;;;3.07;2.40;;;10.30;99.90;;;;;;7814840;28;20182;-91
2023/03/14 01:15:04;;;;;;;3.37;2.80;;;10.40;99.90;;;;;;7806225;28;20602;-92
2023/03/14 01:18:50;;;;;;;3.80;3.40;;;10.40;99.90;;;;;;7791707;28;20225;-91
2023/03/14 01:22:38;;;;;;;5.17;3.57;;;10.40;99.90;;;;;;7776864;28;20218;-91
2023/03/14 01:26:26;;;;;;;4.30;3.63;;;10.40;99.90;;;;;;7781380;28;20182;-92
2023/03/14 01:30:12;;;;;;;5.07;4.57;;;10.40;99.90;;;;;;7802439;28;20182;-92
2023/03/14 01:33:58;;;;;;;5.90;4.73;;;10.40;99.90;;;;;;7812167;28;20209;-91
2023/03/14 01:37:43;;;;;;;5.80;4.23;;;10.40;99.90;;;;;;7812093;28;20210;-92
2023/03/14 01:41:29;;;;;;;7.77;4.77;;;10.40;99.90;;;;;;7797528;28;20175;-92
2023/03/14 01:45:58;;;;;;;6.03;4.73;;;10.40;99.90;;;;;;7820310;28;20206;-91
2023/03/14 01:49:46;;;;;;;5.73;4.30;;;10.40;99.90;;;;;;7772599;28;20201;-91
2023/03/14 01:53:33;;;;;;;5.97;4.30;;;10.40;99.90;;;;;;7809538;28;20210;-91
2023/03/14 01:57:57;;;;;;;5.43;4.30;;;10.40;99.90;;;;;;7780709;28;20290;-91
2023/03/14 02:01:46;;;;;;;5.57;4.10;;;10.40;99.90;;;;;;7718473;28;20199;-92
2023/03/14 02:05:35;;;;;;;5.07;3.90;;;10.40;99.90;;;;;;7730909;28;20904;-91
2023/03/14 02:09:21;;;;;;;4.47;3.60;;;10.40;99.90;;;;;;7730744;28;20618;-92
2023/03/14 02:13:07;;;;;;;4.13;3.73;;;10.40;99.90;;;;;;7730453;28;20243;-91
2023/03/14 02:17:02;;;;;;;4.37;3.87;;;10.40;99.90;;;;;;7730683;28;20760;-91
2023/03/14 02:20:53;;;;;;;4.50;3.63;;;10.40;99.90;;;;;;7732290;28;20498;-91
2023/03/14 02:25:17;;;;;;;4.50;3.80;;;10.30;99.90;;;;;;7766220;28;20227;-91
2023/03/14 02:29:02;;;;;;;4.73;3.90;;;10.40;99.90;;;;;;7731078;28;20274;-91
2023/03/14 02:33:07;;;;;;;3.93;3.27;;;10.40;99.90;;;;;;7730665;28;20269;-91
2023/03/14 02:36:53;;;;;;;3.67;3.20;;;10.40;99.90;;;;;;7752773;28;20229;-91
2023/03/14 02:40:39;;;;;;;3.93;2.60;;;10.40;99.90;;;;;;7799097;28;20355;-91
2023/03/14 02:44:25;;;;;;;4.03;2.70;;;10.40;99.90;;;;;;7779458;28;20616;-91
2023/03/14 02:48:35;;;;;;;2.20;1.80;;;10.40;99.90;;;;;;7795660;28;20546;-91
2023/03/14 02:52:21;;;;;;;2.40;1.63;;;10.50;99.90;;;;;;7795883;28;20175;-91
2023/03/14 02:56:08;;;;;;;2.07;1.50;;;10.50;99.90;;;;;;7795343;28;20218;-91
2023/03/14 02:59:53;;;;;;;2.40;1.10;;;10.60;99.90;;;;;;7778950;28;20262;-91
2023/03/14 03:03:39;;;;;;;0.87;0.87;;;10.60;99.90;;;;;;7778668;28;20210;-91
2023/03/14 03:07:24;;;;;;;1.53;0.70;;;10.60;99.90;;;;;;7778680;28;20194;-91
2023/03/14 03:11:10;;;;;;;0.97;0.90;;;10.70;99.90;;;;;;7791549;28;20193;-92
2023/03/14 03:14:56;;;;;;;0.50;0.50;;;10.80;99.90;;;;;;7801923;28;20211;-91
2023/03/14 03:18:41;;;;;;;0.50;0.50;;;10.80;99.90;;;;;;7785607;28;20179;-92
2023/03/14 03:22:36;;;;;;;2.03;0.60;;;10.80;99.90;;;;;;7794371;28;20205;-91
2023/03/14 03:26:22;;;;;;;1.80;0.30;;;10.80;99.90;;;;;;7788730;28;20264;-91
2023/03/14 03:30:08;;;;;;;1.53;0.53;;;10.90;99.90;;;;;;7790865;28;20210;-91
2023/03/14 03:33:54;;;;;;;0.63;0.57;;;10.90;99.90;;;;;;7794360;28;20235;-91
2023/03/14 03:37:40;;;;;;;0.40;0.20;;;10.90;99.90;;;;;;7793890;28;20218;-90
2023/03/14 03:41:25;;;;;;;2.30;0.70;;;10.90;99.90;;;;;;7777814;28;20733;-91
2023/03/14 03:45:11;;;;;;;0.33;0.30;;;10.80;99.90;;;;;;7804076;28;20218;-91
2023/03/14 03:48:59;;;;;;;0.50;0.50;;;10.80;99.90;;;;;;7786136;28;20187;-91
2023/03/14 03:52:57;;;;;;;0.40;0.40;;;10.80;99.90;;;;;;7797145;28;20183;-91
2023/03/14 03:56:43;;;;;;;0.70;0.30;;;10.80;99.90;;;;;;7777289;28;20236;-91
2023/03/14 04:00:29;;;;;;;0.40;0.30;;;10.80;99.90;;;;;;7796771;28;20269;-92
2023/03/14 04:04:15;;;;;;;0.27;0.20;;;10.80;99.90;;;;;;7792075;28;20248;-91
2023/03/14 04:08:01;;;;;;;0.43;0.40;;;10.80;99.90;;;;;;7807790;28;20179;-92
2023/03/14 04:11:46;;;;;;;1.43;0.43;;;10.80;99.90;;;;;;7817449;28;20209;-91
2023/03/14 04:15:32;;;;;;;0.30;0.30;;;10.80;99.90;;;;;;7834312;28;20202;-92
2023/03/14 04:19:18;;;;;;;0.47;0.40;;;10.70;99.90;;;;;;7823175;28;20188;-91
2023/03/14 04:23:03;;;;;;;0.50;0.30;;;10.70;99.90;;;;;;7807086;28;20680;-91
2023/03/14 04:26:49;;;;;;;1.40;0.40;;;10.60;99.90;;;;;;7807130;28;20228;-92
2023/03/14 04:30:34;;;;;;;0.47;0.33;;;10.60;99.90;;;;;;7800093;28;20187;-91
2023/03/14 04:35:08;;;;;;;0.63;0.40;;;10.60;99.90;;;;;;7803997;28;20203;-91
2023/03/14 04:38:53;;;;;;;0.93;0.40;;;10.60;99.90;;;;;;7776314;28;20218;-91
2023/03/14 04:42:39;;;;;;;0.63;0.23;;;10.60;99.90;;;;;;7783354;28;20180;-92
2023/03/14 04:46:25;;;;;;;0.30;0.30;;;10.50;99.90;;;;;;7813088;28;20189;-91
2023/03/14 04:50:10;;;;;;;0.83;0.60;;;10.50;99.90;;;;;;7806546;28;20220;-91
2023/03/14 04:53:56;;;;;;;0.30;0.30;;;10.50;99.90;;;;;;7792878;28;20197;-93
2023/03/14 04:57:42;;;;;;;0.50;0.40;;;10.40;99.90;;;;;;7778518;28;20608;-91
2023/03/14 05:01:31;;;;;;;0.87;0.50;;;10.40;99.90;;;;;;7783035;28;20198;-91
2023/03/14 05:05:17;;;;;;;1.87;0.40;;;10.40;99.90;;;;;;7782244;28;20206;-91
2023/03/14 05:09:04;;;;;;;0.40;0.37;;;10.40;99.90;;;;;;7782516;28;20206;-91
2023/03/14 05:12:50;;;;;;;1.77;0.57;;;10.40;99.90;;;;;;7782492;28;20203;-91
2023/03/14 05:16:36;;;;;;;2.67;0.43;;;10.30;99.90;;;;;;7782595;28;20302;-92
2023/03/14 05:20:21;;;;;;;1.47;0.43;;;10.30;99.90;;;;;;7782502;28;20175;-92
2023/03/14 05:24:07;;;;;;;1.13;0.50;;;10.30;99.90;;;;;;7782399;28;20743;-91
2023/03/14 05:27:56;;;;;;;2.03;0.50;;;10.30;99.90;;;;;;7782776;28;20700;-92
2023/03/14 05:31:41;;;;;;;2.57;0.47;;;10.30;99.90;;;;;;7782166;28;20700;-92
2023/03/14 05:35:27;;;;;;;2.10;0.80;;;10.30;99.90;;;;;;7782138;28;20646;-92
2023/03/14 05:39:13;;;;;;;2.63;0.50;;;10.20;99.90;;;;;;7781948;28;20171;-92
2023/03/14 05:42:58;;;;;;;1.17;0.60;;;10.30;99.90;;;;;;7782105;28;20195;-91
2023/03/14 05:46:44;;;;;;;2.00;0.57;;;10.20;99.90;;;;;;7782157;28;20211;-91
2023/03/14 05:50:30;;;;;;;1.97;0.60;;;10.20;99.90;;;;;;7782891;28;20531;-92
2023/03/14 05:54:15;;;;;;;3.43;0.80;;;10.30;99.90;;;;;;7781782;28;20207;-91
2023/03/14 05:58:01;;;;;;;4.03;1.60;;;10.20;99.90;;;;;;7784698;28;20207;-84
2023/03/14 06:01:47;;;;;;;4.57;1.40;;;10.20;99.90;;;;;;7808076;28;20687;-85
2023/03/14 06:05:33;;;;;;;6.23;1.30;;;10.20;99.90;;;;;;7814351;28;20199;-91
2023/03/14 06:09:22;;;;;;;2.57;1.03;;;10.20;99.90;;;;;;7840161;28;20163;-92
2023/03/14 06:13:07;;;;;;;2.43;0.80;;;10.20;99.90;;;;;;7824266;28;20233;-92
2023/03/14 06:16:53;;;;;;;3.47;0.80;;;10.20;99.90;;;;;;7810050;28;20206;-92
2023/03/14 06:20:39;;;;;;;4.37;0.80;;;10.20;99.90;;;;;;7796924;28;20190;-91
2023/03/14 06:24:25;;;;;;;4.70;1.13;;;10.20;99.90;;;;;;7779967;28;20226;-92
2023/03/14 06:28:10;;;;;;;2.87;0.80;;;10.20;99.90;;;;;;7780831;28;20187;-92
2023/03/14 06:31:56;;;;;;;3.50;0.87;;;10.20;99.90;;;;;;7780239;28;20184;-92
2023/03/14 06:35:42;;;;;;;3.30;0.80;;;10.20;99.90;;;;;;7781279;28;20310;-91
2023/03/14 06:39:27;;;;;;;2.90;0.77;;;10.20;99.90;;;;;;7780404;28;20273;-91
2023/03/14 06:43:13;;;;;;;5.03;1.47;;;10.20;99.90;;;;;;7779630;28;20212;-92
2023/03/14 06:46:58;;;;;;;3.60;0.90;;;10.20;99.90;;;;;;7781438;28;20191;-92
2023/03/14 06:50:44;;;;;;;4.03;0.90;;;10.30;99.90;;;;;;7808845;28;20190;-91
2023/03/14 06:54:30;;;;;;;3.13;1.00;;;10.30;99.90;;;;;;7808643;28;20207;-93
2023/03/14 06:58:16;;;;;;;1.77;0.80;;;10.20;99.90;;;;;;7809243;28;20668;-92
2023/03/14 07:02:01;;;;;;;3.77;0.90;;;10.30;99.90;;;;;;7817659;28;20190;-91
2023/03/14 07:05:47;;;;;;;4.33;0.80;;;10.30;99.90;;;;;;7809263;28;20278;-91
2023/03/14 07:09:34;;;;;;;4.40;0.87;;;10.30;99.90;;;;;;7808987;28;20185;-92
2023/03/14 07:13:19;;;;;;;2.90;0.70;;;10.40;99.90;;;;;;7806785;28;20207;-91
2023/03/14 07:17:05;;;;;;;2.17;0.63;;;10.30;99.90;;;;;;7808342;28;20195;-92
2023/03/14 07:20:50;;;;;;;3.23;0.80;;;10.40;99.90;;;;;;7807081;28;20179;-92
2023/03/14 07:24:36;;;;;;;3.63;0.93;;;10.40;99.90;;;;;;7807966;28;20226;-91
2023/03/14 07:28:22;;;;;;;1.37;0.80;;;10.40;99.90;;;;;;7807648;28;20645;-92
2023/03/14 07:32:09;;;;;;;2.63;0.83;;;10.40;99.90;;;;;;7808201;28;20637;-89
2023/03/14 07:35:54;;;;;;;2.50;1.17;;;10.40;99.90;;;;;;7799256;28;20266;-92
2023/03/14 07:39:40;;;;;;;4.60;1.07;;;10.40;99.90;;;;;;7796206;28;20218;-91
2023/03/14 07:43:26;;;;;;;3.50;0.80;;;10.30;99.90;;;;;;7808931;28;20198;-92
2023/03/14 07:47:11;;;;;;;4.67;0.90;;;10.40;99.90;;;;;;7808815;28;20178;-91
2023/03/14 07:50:57;;;;;;;4.80;0.90;;;10.40;99.90;;;;;;7809461;28;20620;-92
2023/03/14 07:54:43;;;;;;;3.73;0.80;;;10.40;99.90;;;;;;7808868;28;20194;-92
2023/03/14 07:58:29;;;;;;;6.33;1.27;;;10.30;99.90;;;;;;7809011;28;20215;-92
2023/03/14 08:02:14;;;;;;;3.10;0.73;;;10.50;99.90;;;;;;7816101;28;20179;-93
2023/03/14 08:06:00;;;;;;;5.40;1.00;;;10.50;99.90;;;;;;7808865;28;20203;-91
2023/03/14 08:09:45;;;;;;;5.37;1.10;;;10.50;99.90;;;;;;7794207;28;20210;-92
2023/03/14 08:13:31;;;;;;;2.67;0.73;;;10.50;99.90;;;;;;7794245;28;20226;-92
2023/03/14 08:17:17;;;;;;;2.70;0.83;;;10.60;99.90;;;;;;7793797;28;20669;-91
2023/03/14 08:21:03;;;;;;;2.00;0.80;;;10.60;99.90;;;;;;7793910;28;20187;-92
2023/03/14 08:24:48;;;;;;;3.30;0.97;;;10.60;99.90;;;;;;7814063;28;20230;-91
2023/03/14 08:28:34;;;;;;;3.60;1.33;;;10.60;99.90;;;;;;7808484;28;20206;-92
2023/03/14 08:32:20;;;;;;;3.13;1.00;;;10.60;99.90;;;;;;7808132;28;20183;-92
2023/03/14 08:36:19;;;;;;;2.33;0.80;;;10.60;99.90;;;;;;7807592;28;20562;-92
2023/03/14 08:40:06;;;;;;;2.33;1.00;;;10.60;99.90;;;;;;7808196;28;20174;-92
2023/03/14 08:43:52;;;;;;;3.67;1.00;;;10.70;99.90;;;;;;7807936;28;20218;-92
2023/03/14 08:47:37;;;;;;;9.30;0.60;;;10.70;99.90;;;;;;7808056;28;20214;-91
2023/03/14 08:51:23;;;;;;;2.83;0.90;;;10.70;99.90;;;;;;7807890;28;20210;-93
2023/03/14 08:55:09;;;;;;;1.23;0.60;;;10.80;99.90;;;;;;7807859;28;20588;-93
2023/03/14 08:58:55;;;;;;;2.80;0.87;;;10.90;99.90;;;;;;7807618;28;20178;-92
2023/03/14 09:02:44;;;;;;;2.17;0.70;;;10.90;99.90;;;;;;7809114;28;20232;-87
2023/03/14 09:06:30;;;;;;;0.67;0.53;;;10.90;99.90;;;;;;7809613;28;20182;-93
2023/03/14 09:10:15;;;;;;;1.77;0.80;;;10.90;99.90;;;;;;7808061;28;20194;-91
2023/03/14 09:14:01;;;;;;;2.90;0.50;;;11.00;99.90;;;;;;7810472;28;20618;-92
2023/03/14 09:17:47;;;;;;;2.13;0.60;;;11.00;99.90;;;;;;7819039;28;20195;-91
2023/03/14 09:21:32;;;;;;;2.83;0.63;;;11.00;99.90;;;;;;7807660;28;20175;-92
2023/03/14 09:25:18;;;;;;;3.33;0.87;;;11.00;99.90;;;;;;7807620;28;20218;-92
2023/03/14 09:29:04;;;;;;;3.77;0.97;;;11.00;99.90;;;;;;7807634;28;20186;-91
2023/03/14 09:32:49;;;;;;;3.03;0.80;;;11.10;99.90;;;;;;7812279;28;20234;-92
2023/03/14 09:36:37;;;;;;;5.90;1.30;;;11.10;99.90;;;;;;7809708;28;20199;-92
2023/03/14 09:40:24;;;;;;;1.80;0.80;;;11.20;99.90;;;;;;7807019;28;20552;-92
2023/03/14 09:44:25;;;;;;;2.67;0.90;;;11.20;99.90;;;;;;7809348;28;20199;-92
2023/03/14 09:48:22;;;;;;;3.30;0.70;;;11.20;99.90;;;;;;7812990;28;20201;-92
2023/03/14 09:52:29;;;;;;;0.50;0.50;;;11.20;99.90;;;;;;7812535;28;20757;-92
2023/03/14 09:56:25;;;;;;;1.20;0.50;;;11.10;99.90;;;;;;7841483;28;20226;-89
2023/03/14 10:00:16;;;;;;;4.63;0.50;;;11.10;99.90;;;;;;7813095;28;20651;-92
2023/03/14 10:04:17;;;;;;;3.57;1.87;;;11.10;99.90;;;;;;7782483;28;20281;-92
2023/03/14 10:08:03;;;;;;;5.20;2.23;;;11.10;99.90;;;;;;7781777;28;20174;-92
2023/03/14 10:11:48;;;;;;;8.37;2.83;;;11.10;99.90;;;;;;7781972;28;20676;-92
2023/03/14 10:15:35;;;;;;;8.73;3.93;;;11.00;99.90;;;;;;7781425;28;20577;-92
2023/03/14 10:19:21;;;;;;;2.37;1.40;;;11.00;99.90;;;;;;7782366;28;20672;-91
2023/03/14 10:23:12;;;;;;;7.37;3.03;;;11.00;99.90;;;;;;7781376;28;20578;-92
2023/03/14 10:27:02;;;;;;;6.07;3.33;;;11.10;99.90;;;;;;7781829;28;20211;-92
2023/03/14 10:30:47;;;;;;;3.37;2.60;;;11.10;99.90;;;;;;7781415;28;20218;-92
2023/03/14 10:34:36;;;;;;;3.33;1.00;;;11.10;99.90;;;;;;7780715;28;20207;-92
2023/03/14 10:38:42;;;;;;;1.07;0.73;;;11.10;99.90;;;;;;7780683;28;20229;-91
2023/03/14 10:42:34;;;;;;;1.97;0.70;;;11.10;99.90;;;;;;7780672;28;20168;-91
2023/03/14 10:46:20;;;;;;;1.80;0.73;;;11.10;99.90;;;;;;7781015;28;20172;-91
2023/03/14 10:50:28;;;;;;;2.47;1.10;;;11.10;99.90;;;;;;7793513;28;20190;-92
2023/03/14 10:54:23;;;;;;;10.90;9.03;;;11.10;99.90;;;;;;7811849;28;20213;-92
2023/03/14 10:58:21;;;;;;;5.60;3.67;;;11.20;99.90;;;;;;7808994;28;20310;-92
2023/03/14 11:02:25;;;;;;;3.67;1.53;;;11.20;99.90;;;;;;7809087;28;20186;-92
2023/03/14 11:06:58;;;;;;;1.87;1.30;;;11.20;99.90;;;;;;7808340;28;20218;-92
2023/03/14 11:10:48;;;;;;;1.80;1.40;;;11.20;99.90;;;;;;7775833;28;20202;-93
2023/03/14 11:14:40;;;;;;;32.17;28.67;;;11.20;99.90;;;;;;7819006;28;20202;-92
2023/03/14 11:19:04;;;;;;;5.90;5.33;;;11.20;99.90;;;;;;7808469;28;20623;-92
2023/03/14 11:23:01;;;;;;;4.10;3.70;;;11.10;99.90;;;;;;7807922;28;20271;-91
2023/03/14 11:26:47;;;;;;;3.27;0.80;;;11.10;99.90;;;;;;7793374;28;20186;-91
2023/03/14 11:30:52;;;;;;;0.87;0.50;;;11.10;99.90;;;;;;7776657;28;20211;-91
2023/03/14 11:34:55;;;;;;;3.60;0.80;;;11.10;99.90;;;;;;7778110;28;20195;-91
2023/03/14 11:38:46;;;;;;;2.97;1.40;;;11.10;99.90;;;;;;7777356;28;20241;-90
2023/03/14 11:42:33;;;;;;;5.93;4.10;;;11.10;99.90;;;;;;7776332;28;20186;-91
2023/03/14 11:46:41;;;;;;;3.67;1.90;;;11.10;99.90;;;;;;7801280;28;20194;-92
2023/03/14 11:50:30;;;;;;;13.00;6.57;;;11.10;99.90;;;;;;7822942;28;20189;-91
2023/03/14 11:54:46;;;;;;;7.27;4.77;;;11.10;99.90;;;;;;7809308;28;20209;-91
2023/03/14 11:58:38;;;;;;;2.17;1.30;;;11.20;99.90;;;;;;7823648;28;20249;-91
2023/03/14 12:02:29;;;;;;;3.63;1.10;;;11.10;99.90;;;;;;7806983;28;20265;-91
2023/03/14 12:06:50;;;;;;;6.20;1.10;;;11.10;99.90;;;;;;7806233;28;20245;-91
2023/03/14 12:10:59;;;;;;;1.30;0.73;;;11.10;99.90;;;;;;7756569;28;20585;-91
2023/03/14 12:14:53;;;;;;;1.80;1.00;;;11.10;99.90;;;;;;7756195;28;20215;-91
2023/03/14 12:18:40;;;;;;;2.83;0.70;;;11.10;99.90;;;;;;7755906;28;20246;-90
2023/03/14 12:22:29;;;;;;;1.07;0.63;;;11.10;99.90;;;;;;7732902;28;20692;-91
2023/03/14 12:26:19;;;;;;;2.33;1.57;;;11.10;99.90;;;;;;7772088;28;20238;-91
2023/03/14 12:30:20;;;;;;;4.00;3.10;;;11.20;99.90;;;;;;7772706;28;20186;-92
2023/03/14 12:34:11;;;;;;;4.47;3.30;;;11.20;99.90;;;;;;7752253;28;20215;-91
2023/03/14 12:38:00;;;;;;;1.37;0.73;;;11.30;99.90;;;;;;7725836;28;20307;-91
2023/03/14 12:41:52;;;;;;;0.90;0.50;;;11.30;99.90;;;;;;7744682;28;20179;-90
2023/03/14 12:45:38;;;;;;;1.67;0.80;;;11.40;99.90;;;;;;7776797;28;20321;-90
2023/03/14 12:49:37;;;;;;;2.17;1.20;;;11.40;99.90;;;;;;7791173;28;20215;-91
2023/03/14 12:53:35;;;;;;;0.40;0.40;;;11.40;99.90;;;;;;7776476;28;20420;-91
2023/03/14 12:57:41;;;;;;;1.17;0.50;;;11.30;99.90;;;;;;7790300;28;20190;-91
2023/03/14 13:01:27;;;;;;;2.33;0.80;;;11.30;99.90;;;;;;7804700;28;20684;-86
2023/03/14 13:05:20;;;;;;;1.07;0.47;;;11.40;99.90;;;;;;7792420;28;20792;-86
2023/03/14 13:09:29;;;;;;;0.40;0.30;;;11.40;99.90;;;;;;7798064;28;20183;-86
2023/03/14 13:13:21;;;;;;;0.57;0.30;;;11.50;99.90;;;;;;7777662;28;20253;-86
2023/03/14 13:17:14;;;;;;;0.63;0.40;;;11.60;99.90;;;;;;7783330;28;20274;-87
2023/03/14 13:21:14;;;;;;;0.40;0.40;;;11.70;99.90;;;;;;7784462;28;20187;-92
2023/03/14 13:25:06;;;;;;;0.30;0.20;;;12.00;99.90;;;;;;7780134;28;20230;-91
2023/03/14 13:28:53;;;;;;;0.77;0.47;;;12.00;99.90;;;;;;7794913;28;20210;-91
2023/03/14 13:32:42;;;;;;;0.90;0.57;;;12.00;99.90;;;;;;7804802;28;20183;-89
2023/03/14 13:36:28;;;;;;;1.03;0.40;;;12.20;99.90;;;;;;7813884;28;20198;-91
2023/03/14 13:40:42;;;;;;;4.07;0.40;;;12.20;99.90;;;;;;7812718;28;20201;-93
2023/03/14 13:44:39;;;;;;;0.73;0.47;;;12.40;99.90;;;;;;7826538;28;20204;-90
2023/03/14 13:48:30;;;;;;;0.83;0.60;;;12.40;99.90;;;;;;7785696;28;20187;-90
2023/03/14 13:52:22;;;;;;;0.40;0.30;;;12.60;99.90;;;;;;7795273;28;20256;-90
2023/03/14 13:56:10;;;;;;;2.67;0.50;;;12.60;99.90;;;;;;7800641;28;20241;-91
2023/03/14 14:00:09;;;;;;;1.17;0.30;;;12.70;99.90;;;;;;7811197;28;20186;-91
2023/03/14 14:03:57;;;;;;;0.40;0.40;;;12.80;99.90;;;;;;7822910;28;20293;-90
2023/03/14 14:07:44;;;;;;;0.83;0.50;;;12.80;99.90;;;;;;7803375;28;20178;-91
2023/03/14 14:11:48;;;;;;;1.33;0.90;;;12.80;99.90;;;;;;7809869;28;20277;-90
2023/03/14 14:15:41;;;;;;;0.50;0.47;;;12.70;99.90;;;;;;7811205;28;20297;-91
2023/03/14 14:19:29;;;;;;;0.57;0.40;;;12.70;99.90;;;;;;7797003;28;20182;-91
2023/03/14 14:23:29;;;;;;;0.40;0.40;;;12.70;99.90;;;;;;7780002;28;20214;-91
2023/03/14 14:27:24;;;;;;;0.50;0.40;;;12.70;99.90;;;;;;7780429;28;20266;-91
2023/03/14 14:31:24;;;;;;;1.30;0.30;;;12.70;99.90;;;;;;7810982;28;20186;-90
2023/03/14 14:35:21;;;;;;;0.47;0.47;;;12.60;99.90;;;;;;7811015;28;20202;-90
2023/03/14 14:39:26;;;;;;;1.67;0.30;;;12.70;99.90;;;;;;7792826;28;20245;-86
2023/03/14 14:43:17;;;;;;;0.50;0.37;;;12.80;99.90;;;;;;7810580;28;20209;-90
2023/03/14 14:47:03;;;;;;;1.80;0.30;;;12.80;99.90;;;;;;7809940;28;20615;-90
2023/03/14 14:51:02;;;;;;;0.63;0.40;;;12.80;99.90;;;;;;7795443;28;20199;-90
2023/03/14 14:54:56;;;;;;;0.20;0.20;;;12.80;99.90;;;;;;7779369;28;20238;-89
2023/03/14 14:58:45;;;;;;;0.70;0.40;;;12.90;99.90;;;;;;7780974;28;20735;-91
2023/03/14 15:02:46;;;;;;;0.70;0.50;;;12.80;99.90;;;;;;7797704;28;20209;-91
2023/03/14 15:06:31;;;;;;;0.60;0.50;;;12.70;99.90;;;;;;7810960;28;20182;-91
2023/03/14 15:10:20;;;;;;;0.50;0.30;;;12.80;99.90;;;;;;7796029;28;20207;-90
2023/03/14 15:14:06;;;;;;;0.30;0.30;;;12.70;99.90;;;;;;7792773;28;20209;-92
2023/03/14 15:17:52;;;;;;;0.30;0.30;;;12.70;99.90;;;;;;7809814;28;20206;-92
2023/03/14 15:21:38;;;;;;;0.40;0.30;;;12.70;99.90;;;;;;7813221;28;20210;-91
2023/03/14 15:25:23;;;;;;;1.90;0.30;;;12.60;99.90;;;;;;7810918;28;20686;-91
2023/03/14 15:29:12;;;;;;;2.63;1.80;;;12.60;99.90;;;;;;7811786;28;20205;-93
2023/03/14 15:33:00;;;;;;;0.70;0.60;;;12.70;99.90;;;;;;7813007;28;20212;-91
2023/03/14 15:36:45;;;;;;;1.50;0.50;;;12.70;99.90;;;;;;7849225;28;20244;-91
2023/03/14 15:40:33;;;;;;;0.80;0.80;;;12.60;99.90;;;;;;7811733;28;20186;-92
2023/03/14 15:44:22;;;;;;;0.50;0.40;;;12.60;99.90;;;;;;7807977;28;20203;-94
2023/03/14 15:48:16;;;;;;;9.97;5.03;;;12.50;99.90;;;;;;7808930;28;20199;-90
2023/03/14 15:52:02;;;;;;;1.47;0.90;;;12.50;99.90;;;;;;7808620;28;20188;-91
2023/03/14 15:56:12;;;;;;;1.90;1.07;;;12.50;99.90;;;;;;7808453;28;20214;-91
2023/03/14 15:59:58;;;;;;;6.43;3.33;;;12.50;99.90;;;;;;7795174;28;20176;-91
2023/03/14 16:03:53;;;;;;;28.90;12.10;;;12.40;99.90;;;;;;7796885;28;20228;-91
2023/03/14 16:07:39;;;;;;;3.80;1.53;;;12.40;99.90;;;;;;7795461;28;20209;-91
2023/03/14 16:11:27;;;;;;;4.83;2.23;;;12.40;99.90;;;;;;7777633;28;20804;-91
2023/03/14 16:15:53;;;;;;;0.73;0.50;;;12.40;99.90;;;;;;7795171;28;20215;-91
2023/03/14 16:19:38;;;;;;;1.53;1.43;;;12.40;99.90;;;;;;7800269;28;20276;-91
2023/03/14 16:23:25;;;;;;;4.07;2.70;;;12.30;99.90;;;;;;7807278;28;20214;-91
2023/03/14 16:27:10;;;;;;;1.33;1.00;;;12.40;99.90;;;;;;7807561;28;20602;-92
2023/03/14 16:31:03;;;;;;;4.97;4.10;;;12.40;99.90;;;;;;7807691;28;20218;-91
2023/03/14 16:34:49;;;;;;;1.37;0.40;;;12.30;99.90;;;;;;7793146;28;20210;-89
2023/03/14 16:38:37;;;;;;;0.73;0.50;;;12.20;99.90;;;;;;7781089;28;20203;-90
2023/03/14 16:42:23;;;;;;;1.03;0.67;;;11.90;99.90;;;;;;7800961;28;20171;-90
2023/03/14 16:46:16;;;;;;;0.30;0.30;;;11.60;99.90;;;;;;7795403;28;20309;-90
2023/03/14 16:50:02;;;;;;;1.17;0.60;;;11.40;99.90;;;;;;7812456;28;20290;-89
2023/03/14 16:53:49;;;;;;;0.93;0.57;;;11.20;99.90;;;;;;7797200;28;20221;-91
2023/03/14 16:57:35;;;;;;;3.13;0.50;;;11.00;99.90;;;;;;7804939;28;20206;-90
2023/03/14 17:01:20;;;;;;;2.37;1.00;;;10.70;99.90;;;;;;7814397;28;20185;-90
2023/03/14 17:05:06;;;;;;;1.90;1.20;;;9.70;99.90;;;;;;7803774;28;20311;-90
2023/03/14 17:09:05;;;;;;;4.83;2.60;;;9.30;99.90;;;;;;7807813;28;20679;-90
2023/03/14 17:12:50;;;;;;;5.30;1.30;;;9.10;99.90;;;;;;7808527;28;20295;-90
2023/03/14 17:16:36;;;;;;;2.03;0.83;;;9.00;99.90;;;;;;7812607;28;20470;-90
2023/03/14 17:20:21;;;;;;;1.80;0.57;;;9.00;99.90;;;;;;7819158;28;20179;-91
2023/03/14 17:24:07;;;;;;;3.60;1.70;;;8.80;99.90;;;;;;7808374;28;20214;-90
2023/03/14 17:27:53;;;;;;;0.70;0.70;;;8.40;99.90;;;;;;7838739;28;20175;-91
2023/03/14 17:31:38;;;;;;;0.40;0.37;;;8.20;99.90;;;;;;7798935;28;20185;-90
2023/03/14 17:35:24;;;;;;;0.60;0.50;;;8.10;99.90;;;;;;7807136;28;20296;-90
2023/03/14 17:39:18;;;;;;;1.93;1.40;;;7.80;99.90;;;;;;7796458;28;20187;-90
2023/03/14 17:43:04;;;;;;;2.43;1.87;;;7.70;99.90;;;;;;7803349;28;20202;-90
2023/03/14 17:46:56;;;;;;;3.17;2.00;;;7.20;99.90;;;;;;7797909;28;20202;-91
2023/03/14 17:50:42;;;;;;;3.07;2.03;;;6.70;99.90;;;;;;7799629;28;20274;-92
2023/03/14 17:54:37;;;;;;;3.07;1.97;;;6.40;99.90;;;;;;7795588;28;20213;-91
2023/03/14 17:59:01;;;;;;;3.50;1.87;;;5.90;99.90;;;;;;7786500;28;20349;-91
2023/03/14 18:03:00;;;;;;;5.47;3.27;;;6.10;99.90;;;;;;7786194;28;20218;-91
2023/03/14 18:06:49;;;;;;;3.67;1.57;;;6.20;99.90;;;;;;7811034;28;20221;-91
2023/03/14 18:10:54;;;;;;;8.57;3.50;;;6.20;99.90;;;;;;7820802;28;20199;-91
2023/03/14 18:14:43;;;;;;;7.63;2.20;;;6.10;99.90;;;;;;7809835;28;20206;-91
2023/03/14 18:18:29;;;;;;;4.80;1.70;;;6.10;99.90;;;;;;7812177;28;20207;-91
2023/03/14 18:22:18;;;;;;;4.77;2.10;;;6.10;99.90;;;;;;7817038;28;20282;-91
2023/03/14 18:26:10;;;;;;;6.90;2.00;;;6.10;99.90;;;;;;7794354;28;20310;-91
2023/03/14 18:29:56;;;;;;;6.10;2.40;;;6.00;99.90;;;;;;7806724;28;20186;-91
2023/03/14 18:33:44;;;;;;;4.60;2.10;;;6.10;99.90;;;;;;7798211;28;20209;-91
2023/03/14 18:37:55;;;;;;;6.07;2.80;;;6.20;99.90;;;;;;7803210;28;20573;-90
2023/03/14 18:41:41;;;;;;;6.43;2.10;;;6.30;99.90;;;;;;7797337;28;20175;-91
2023/03/14 18:45:27;;;;;;;7.93;4.00;;;6.30;99.90;;;;;;7797174;28;20249;-91
2023/03/14 18:49:24;;;;;;;6.33;3.47;;;6.20;99.90;;;;;;7808828;28;20179;-91
2023/03/14 18:53:30;;;;;;;4.77;2.70;;;6.10;99.90;;;;;;7804765;28;20703;-91
2023/03/14 18:57:43;;;;;;;4.10;1.50;;;6.00;99.90;;;;;;7794244;28;20294;-91
2023/03/14 19:01:33;;;;;;;5.90;1.80;;;6.00;99.90;;;;;;7796016;28;20246;-90
2023/03/14 19:05:18;;;;;;;7.33;4.13;;;5.80;99.90;;;;;;7792792;28;20634;-90
2023/03/14 19:09:14;;;;;;;2.73;1.27;;;5.90;99.90;;;;;;7805892;28;20201;-91
2023/03/14 19:13:05;;;;;;;2.87;1.67;;;6.30;99.90;;;;;;7785288;28;20203;-91
2023/03/14 19:16:51;;;;;;;3.97;1.87;;;6.20;99.90;;;;;;7816021;28;20178;-90
2023/03/14 19:20:38;;;;;;;5.50;2.07;;;6.60;99.90;;;;;;7845318;28;20569;-91
2023/03/14 19:24:24;;;;;;;3.13;1.30;;;6.70;99.90;;;;;;7810196;28;20592;-92
2023/03/14 19:28:10;;;;;;;3.80;1.53;;;6.80;99.90;;;;;;7798653;28;20282;-91
2023/03/14 19:31:55;;;;;;;4.77;1.53;;;6.90;99.90;;;;;;7813258;28;20265;-91
2023/03/14 19:35:41;;;;;;;4.50;2.40;;;6.90;99.90;;;;;;7802465;28;20273;-90
2023/03/14 19:39:27;;;;;;;12.83;4.83;;;6.80;99.90;;;;;;7794332;28;20183;-91
2023/03/14 19:43:13;;;;;;;4.20;2.23;;;6.80;99.90;;;;;;7806095;28;20209;-90
2023/03/14 19:46:59;;;;;;;7.03;1.70;;;6.70;99.90;;;;;;7812139;28;20182;-91
2023/03/14 19:50:45;;;;;;;7.40;3.57;;;6.50;99.90;;;;;;7790918;28;20234;-91
2023/03/14 19:54:31;;;;;;;7.03;2.30;;;6.60;99.90;;;;;;7780901;28;20210;-91
2023/03/14 19:58:16;;;;;;;11.53;5.17;;;6.50;99.90;;;;;;7809065;28;20301;-92
2023/03/14 20:02:03;;;;;;;6.60;2.70;;;6.80;99.90;;;;;;7804173;28;20232;-91